sensor_id;sensor_type;location;lat;lon;timestamp;P1;durP1;ratioP1;P2;durP2;ratioP2
20114;SDS011;10218;42.874;25.320;2023-03-03T00:00:57;129.67;;;40.60;;
20114;SDS011;10218;42.874;25.320;2023-03-03T00:03:25;165.87;;;41.30;;
20114;SDS011;10218;42.874;25.320;2023-03-03T00:05:55;137.17;;;40.17;;
20114;SDS011;10218;42.874;25.320;2023-03-03T00:08:22;116.63;;;40.73;;
20114;SDS011;10218;42.874;25.320;2023-03-03T00:10:49;163.10;;;41.20;;
20114;SDS011;10218;42.874;25.320;2023-03-03T00:13:21;150.43;;;41.37;;
20114;SDS011;10218;42.874;25.320;2023-03-03T00:15:50;153.50;;;41.67;;
20114;SDS011;10218;42.874;25.320;2023-03-03T00:18:29;110.33;;;37.10;;
20114;SDS011;10218;42.874;25.320;2023-03-03T00:21:01;122.20;;;37.93;;
20114;SDS011;10218;42.874;25.320;2023-03-03T00:23:30;129.53;;;40.00;;
20114;SDS011;10218;42.874;25.320;2023-03-03T00:26:17;135.40;;;39.17;;
20114;SDS011;10218;42.874;25.320;2023-03-03T00:28:49;127.80;;;36.87;;
20114;SDS011;10218;42.874;25.320;2023-03-03T00:33:46;121.43;;;33.67;;
20114;SDS011;10218;42.874;25.320;2023-03-03T00:39:43;100.87;;;34.00;;
20114;SDS011;10218;42.874;25.320;2023-03-03T00:41:51;117.43;;;34.30;;
20114;SDS011;10218;42.874;25.320;2023-03-03T00:47:10;104.27;;;33.33;;
20114;SDS011;10218;42.874;25.320;2023-03-03T00:49:53;136.60;;;33.90;;
20114;SDS011;10218;42.874;25.320;2023-03-03T00:52:29;121.03;;;35.40;;
20114;SDS011;10218;42.874;25.320;2023-03-03T00:54:59;109.43;;;35.40;;
20114;SDS011;10218;42.874;25.320;2023-03-03T00:57:26;102.73;;;33.67;;
20114;SDS011;10218;42.874;25.320;2023-03-03T00:59:53;114.13;;;34.53;;
20114;SDS011;10218;42.874;25.320;2023-03-03T01:02:20;116.90;;;36.07;;
20114;SDS011;10218;42.874;25.320;2023-03-03T01:04:49;107.57;;;35.77;;
20114;SDS011;10218;42.874;25.320;2023-03-03T01:07:17;149.80;;;39.37;;
20114;SDS011;10218;42.874;25.320;2023-03-03T01:09:45;155.10;;;38.70;;
20114;SDS011;10218;42.874;25.320;2023-03-03T01:12:12;127.50;;;40.53;;
20114;SDS011;10218;42.874;25.320;2023-03-03T01:14:39;134.50;;;36.47;;
20114;SDS011;10218;42.874;25.320;2023-03-03T01:17:07;124.33;;;39.83;;
20114;SDS011;10218;42.874;25.320;2023-03-03T01:19:34;114.87;;;38.73;;
20114;SDS011;10218;42.874;25.320;2023-03-03T01:22:01;184.17;;;40.53;;
20114;SDS011;10218;42.874;25.320;2023-03-03T01:24:28;242.07;;;37.57;;
20114;SDS011;10218;42.874;25.320;2023-03-03T01:26:55;146.00;;;40.30;;
20114;SDS011;10218;42.874;25.320;2023-03-03T01:29:22;140.27;;;39.37;;
20114;SDS011;10218;42.874;25.320;2023-03-03T01:31:50;190.10;;;40.47;;
20114;SDS011;10218;42.874;25.320;2023-03-03T01:34:16;236.63;;;41.67;;
20114;SDS011;10218;42.874;25.320;2023-03-03T01:36:43;189.83;;;41.53;;
20114;SDS011;10218;42.874;25.320;2023-03-03T01:39:11;185.10;;;43.10;;
20114;SDS011;10218;42.874;25.320;2023-03-03T01:41:38;136.27;;;42.27;;
20114;SDS011;10218;42.874;25.320;2023-03-03T01:44:06;223.03;;;45.27;;
20114;SDS011;10218;42.874;25.320;2023-03-03T01:46:55;256.87;;;46.77;;
20114;SDS011;10218;42.874;25.320;2023-03-03T01:49:33;207.60;;;45.93;;
20114;SDS011;10218;42.874;25.320;2023-03-03T01:52:10;159.17;;;43.57;;
20114;SDS011;10218;42.874;25.320;2023-03-03T01:54:46;192.07;;;46.77;;
20114;SDS011;10218;42.874;25.320;2023-03-03T01:57:22;282.67;;;47.53;;
20114;SDS011;10218;42.874;25.320;2023-03-03T01:59:54;264.33;;;48.50;;
20114;SDS011;10218;42.874;25.320;2023-03-03T02:02:25;176.97;;;45.03;;
20114;SDS011;10218;42.874;25.320;2023-03-03T02:04:54;192.80;;;44.13;;
20114;SDS011;10218;42.874;25.320;2023-03-03T02:07:22;229.50;;;50.33;;
20114;SDS011;10218;42.874;25.320;2023-03-03T02:10:03;206.93;;;45.93;;
20114;SDS011;10218;42.874;25.320;2023-03-03T02:15:20;190.13;;;51.60;;
20114;SDS011;10218;42.874;25.320;2023-03-03T02:17:59;206.60;;;51.77;;
20114;SDS011;10218;42.874;25.320;2023-03-03T02:26:09;154.00;;;47.73;;
20114;SDS011;10218;42.874;25.320;2023-03-03T02:28:39;189.90;;;47.93;;
20114;SDS011;10218;42.874;25.320;2023-03-03T02:31:08;170.23;;;49.03;;
20114;SDS011;10218;42.874;25.320;2023-03-03T02:33:42;196.33;;;49.27;;
20114;SDS011;10218;42.874;25.320;2023-03-03T02:36:11;162.00;;;46.33;;
20114;SDS011;10218;42.874;25.320;2023-03-03T02:41:52;173.43;;;46.73;;
20114;SDS011;10218;42.874;25.320;2023-03-03T02:44:47;142.20;;;47.73;;
20114;SDS011;10218;42.874;25.320;2023-03-03T02:47:14;155.93;;;49.93;;
20114;SDS011;10218;42.874;25.320;2023-03-03T02:49:41;181.47;;;54.13;;
20114;SDS011;10218;42.874;25.320;2023-03-03T02:52:09;203.40;;;58.03;;
20114;SDS011;10218;42.874;25.320;2023-03-03T02:54:37;182.87;;;58.30;;
20114;SDS011;10218;42.874;25.320;2023-03-03T02:57:04;160.13;;;57.10;;
20114;SDS011;10218;42.874;25.320;2023-03-03T02:59:32;171.70;;;57.23;;
20114;SDS011;10218;42.874;25.320;2023-03-03T03:01:59;160.73;;;56.00;;
20114;SDS011;10218;42.874;25.320;2023-03-03T03:04:26;170.60;;;56.37;;
20114;SDS011;10218;42.874;25.320;2023-03-03T03:06:54;251.87;;;52.80;;
20114;SDS011;10218;42.874;25.320;2023-03-03T03:09:22;148.13;;;51.50;;
20114;SDS011;10218;42.874;25.320;2023-03-03T03:11:51;172.67;;;53.37;;
20114;SDS011;10218;42.874;25.320;2023-03-03T03:14:18;172.37;;;53.00;;
20114;SDS011;10218;42.874;25.320;2023-03-03T03:16:45;163.23;;;54.20;;
20114;SDS011;10218;42.874;25.320;2023-03-03T03:19:13;158.53;;;52.90;;
20114;SDS011;10218;42.874;25.320;2023-03-03T03:21:41;184.20;;;52.07;;
20114;SDS011;10218;42.874;25.320;2023-03-03T03:24:08;197.07;;;53.17;;
20114;SDS011;10218;42.874;25.320;2023-03-03T03:26:36;234.97;;;51.87;;
20114;SDS011;10218;42.874;25.320;2023-03-03T03:29:03;152.33;;;52.60;;
20114;SDS011;10218;42.874;25.320;2023-03-03T03:31:31;240.03;;;51.30;;
20114;SDS011;10218;42.874;25.320;2023-03-03T03:33:58;153.90;;;53.33;;
20114;SDS011;10218;42.874;25.320;2023-03-03T03:36:26;151.50;;;51.80;;
20114;SDS011;10218;42.874;25.320;2023-03-03T03:38:54;151.17;;;51.27;;
20114;SDS011;10218;42.874;25.320;2023-03-03T03:41:21;181.03;;;51.53;;
20114;SDS011;10218;42.874;25.320;2023-03-03T03:43:48;142.10;;;46.77;;
20114;SDS011;10218;42.874;25.320;2023-03-03T03:46:15;145.90;;;47.60;;
20114;SDS011;10218;42.874;25.320;2023-03-03T03:48:42;132.80;;;45.97;;
20114;SDS011;10218;42.874;25.320;2023-03-03T03:51:10;128.67;;;45.93;;
20114;SDS011;10218;42.874;25.320;2023-03-03T03:53:38;147.80;;;44.30;;
20114;SDS011;10218;42.874;25.320;2023-03-03T03:56:05;145.77;;;45.50;;
20114;SDS011;10218;42.874;25.320;2023-03-03T03:58:33;134.33;;;44.60;;
20114;SDS011;10218;42.874;25.320;2023-03-03T04:01:01;125.60;;;45.57;;
20114;SDS011;10218;42.874;25.320;2023-03-03T04:03:30;152.50;;;45.73;;
20114;SDS011;10218;42.874;25.320;2023-03-03T04:05:58;142.23;;;43.43;;
20114;SDS011;10218;42.874;25.320;2023-03-03T04:08:25;142.77;;;44.87;;
20114;SDS011;10218;42.874;25.320;2023-03-03T04:10:52;144.87;;;44.90;;
20114;SDS011;10218;42.874;25.320;2023-03-03T04:13:19;170.63;;;46.10;;
20114;SDS011;10218;42.874;25.320;2023-03-03T04:15:47;134.53;;;43.53;;
20114;SDS011;10218;42.874;25.320;2023-03-03T04:18:15;131.70;;;45.03;;
20114;SDS011;10218;42.874;25.320;2023-03-03T04:20:42;143.50;;;44.60;;
20114;SDS011;10218;42.874;25.320;2023-03-03T04:23:10;178.47;;;44.60;;
20114;SDS011;10218;42.874;25.320;2023-03-03T04:25:37;138.57;;;45.97;;
20114;SDS011;10218;42.874;25.320;2023-03-03T04:28:10;162.83;;;44.80;;
20114;SDS011;10218;42.874;25.320;2023-03-03T04:30:37;154.87;;;44.87;;
20114;SDS011;10218;42.874;25.320;2023-03-03T04:33:04;145.23;;;44.20;;
20114;SDS011;10218;42.874;25.320;2023-03-03T04:35:32;139.73;;;44.70;;
20114;SDS011;10218;42.874;25.320;2023-03-03T04:37:59;151.60;;;43.00;;
20114;SDS011;10218;42.874;25.320;2023-03-03T04:40:26;128.50;;;42.40;;
20114;SDS011;10218;42.874;25.320;2023-03-03T04:42:56;152.60;;;41.77;;
20114;SDS011;10218;42.874;25.320;2023-03-03T04:45:24;125.57;;;40.90;;
20114;SDS011;10218;42.874;25.320;2023-03-03T04:47:51;123.87;;;39.83;;
20114;SDS011;10218;42.874;25.320;2023-03-03T04:50:18;131.30;;;36.83;;
20114;SDS011;10218;42.874;25.320;2023-03-03T04:52:46;128.67;;;41.20;;
20114;SDS011;10218;42.874;25.320;2023-03-03T04:55:13;122.60;;;38.90;;
20114;SDS011;10218;42.874;25.320;2023-03-03T04:57:44;111.70;;;38.13;;
20114;SDS011;10218;42.874;25.320;2023-03-03T05:00:11;133.27;;;42.17;;
20114;SDS011;10218;42.874;25.320;2023-03-03T05:02:39;136.67;;;41.60;;
20114;SDS011;10218;42.874;25.320;2023-03-03T05:05:07;127.33;;;40.43;;
20114;SDS011;10218;42.874;25.320;2023-03-03T05:07:36;128.53;;;40.83;;
20114;SDS011;10218;42.874;25.320;2023-03-03T05:10:03;109.23;;;38.13;;
20114;SDS011;10218;42.874;25.320;2023-03-03T05:12:31;109.70;;;39.70;;
20114;SDS011;10218;42.874;25.320;2023-03-03T05:14:58;122.63;;;39.80;;
20114;SDS011;10218;42.874;25.320;2023-03-03T05:17:25;114.63;;;39.23;;
20114;SDS011;10218;42.874;25.320;2023-03-03T05:19:52;118.37;;;39.70;;
20114;SDS011;10218;42.874;25.320;2023-03-03T05:22:19;120.83;;;40.63;;
20114;SDS011;10218;42.874;25.320;2023-03-03T05:24:47;119.83;;;41.00;;
20114;SDS011;10218;42.874;25.320;2023-03-03T05:27:15;120.77;;;41.33;;
20114;SDS011;10218;42.874;25.320;2023-03-03T05:29:42;115.67;;;41.17;;
20114;SDS011;10218;42.874;25.320;2023-03-03T05:32:09;112.00;;;39.10;;
20114;SDS011;10218;42.874;25.320;2023-03-03T05:34:37;114.03;;;41.23;;
20114;SDS011;10218;42.874;25.320;2023-03-03T05:37:04;111.97;;;39.73;;
20114;SDS011;10218;42.874;25.320;2023-03-03T05:39:33;111.43;;;40.27;;
20114;SDS011;10218;42.874;25.320;2023-03-03T05:42:01;114.60;;;39.47;;
20114;SDS011;10218;42.874;25.320;2023-03-03T05:44:28;121.47;;;42.17;;
20114;SDS011;10218;42.874;25.320;2023-03-03T05:46:55;124.83;;;41.47;;
20114;SDS011;10218;42.874;25.320;2023-03-03T05:49:24;118.50;;;41.97;;
20114;SDS011;10218;42.874;25.320;2023-03-03T05:51:51;120.13;;;44.27;;
20114;SDS011;10218;42.874;25.320;2023-03-03T05:54:19;109.60;;;40.77;;
20114;SDS011;10218;42.874;25.320;2023-03-03T05:56:46;106.93;;;42.47;;
20114;SDS011;10218;42.874;25.320;2023-03-03T05:59:13;102.50;;;39.60;;
20114;SDS011;10218;42.874;25.320;2023-03-03T06:01:40;106.40;;;41.73;;
20114;SDS011;10218;42.874;25.320;2023-03-03T06:04:08;110.73;;;41.47;;
20114;SDS011;10218;42.874;25.320;2023-03-03T06:06:35;110.73;;;42.43;;
20114;SDS011;10218;42.874;25.320;2023-03-03T06:09:02;97.13;;;37.33;;
20114;SDS011;10218;42.874;25.320;2023-03-03T06:11:30;102.97;;;38.80;;
20114;SDS011;10218;42.874;25.320;2023-03-03T06:13:57;91.40;;;36.67;;
20114;SDS011;10218;42.874;25.320;2023-03-03T06:16:24;105.70;;;39.50;;
20114;SDS011;10218;42.874;25.320;2023-03-03T06:18:51;100.33;;;38.57;;
20114;SDS011;10218;42.874;25.320;2023-03-03T06:21:18;95.27;;;36.87;;
20114;SDS011;10218;42.874;25.320;2023-03-03T06:23:45;75.97;;;31.67;;
20114;SDS011;10218;42.874;25.320;2023-03-03T06:26:12;77.17;;;31.53;;
20114;SDS011;10218;42.874;25.320;2023-03-03T06:28:39;82.53;;;33.60;;
20114;SDS011;10218;42.874;25.320;2023-03-03T06:31:06;82.63;;;35.70;;
20114;SDS011;10218;42.874;25.320;2023-03-03T06:33:33;75.27;;;33.80;;
20114;SDS011;10218;42.874;25.320;2023-03-03T06:36:00;74.97;;;33.40;;
20114;SDS011;10218;42.874;25.320;2023-03-03T06:38:30;77.20;;;32.43;;
20114;SDS011;10218;42.874;25.320;2023-03-03T06:40:57;76.47;;;33.93;;
20114;SDS011;10218;42.874;25.320;2023-03-03T06:43:27;79.80;;;34.33;;
20114;SDS011;10218;42.874;25.320;2023-03-03T06:45:54;77.33;;;33.13;;
20114;SDS011;10218;42.874;25.320;2023-03-03T06:48:21;98.57;;;40.73;;
20114;SDS011;10218;42.874;25.320;2023-03-03T06:50:48;103.07;;;44.63;;
20114;SDS011;10218;42.874;25.320;2023-03-03T06:53:16;121.83;;;52.80;;
20114;SDS011;10218;42.874;25.320;2023-03-03T06:55:44;122.90;;;57.70;;
20114;SDS011;10218;42.874;25.320;2023-03-03T06:58:18;97.33;;;44.70;;
20114;SDS011;10218;42.874;25.320;2023-03-03T07:00:57;78.57;;;38.90;;
20114;SDS011;10218;42.874;25.320;2023-03-03T07:03:34;73.53;;;37.00;;
20114;SDS011;10218;42.874;25.320;2023-03-03T07:06:04;73.97;;;35.60;;
20114;SDS011;10218;42.874;25.320;2023-03-03T07:08:40;82.27;;;38.80;;
20114;SDS011;10218;42.874;25.320;2023-03-03T07:11:10;96.37;;;43.20;;
20114;SDS011;10218;42.874;25.320;2023-03-03T07:13:43;83.63;;;37.17;;
20114;SDS011;10218;42.874;25.320;2023-03-03T07:16:13;71.77;;;32.77;;
20114;SDS011;10218;42.874;25.320;2023-03-03T07:18:50;69.13;;;31.83;;
20114;SDS011;10218;42.874;25.320;2023-03-03T07:21:20;63.77;;;30.70;;
20114;SDS011;10218;42.874;25.320;2023-03-03T07:23:58;66.97;;;30.53;;
20114;SDS011;10218;42.874;25.320;2023-03-03T07:26:28;64.47;;;29.83;;
20114;SDS011;10218;42.874;25.320;2023-03-03T07:31:51;68.97;;;32.00;;
20114;SDS011;10218;42.874;25.320;2023-03-03T07:34:22;73.30;;;31.90;;
20114;SDS011;10218;42.874;25.320;2023-03-03T07:36:51;72.60;;;32.17;;
20114;SDS011;10218;42.874;25.320;2023-03-03T07:42:39;64.83;;;31.10;;
20114;SDS011;10218;42.874;25.320;2023-03-03T07:44:51;66.90;;;31.57;;
20114;SDS011;10218;42.874;25.320;2023-03-03T07:47:23;64.10;;;30.30;;
20114;SDS011;10218;42.874;25.320;2023-03-03T07:49:52;66.30;;;30.37;;
20114;SDS011;10218;42.874;25.320;2023-03-03T07:54:58;60.27;;;28.73;;
20114;SDS011;10218;42.874;25.320;2023-03-03T07:57:34;68.10;;;34.10;;
20114;SDS011;10218;42.874;25.320;2023-03-03T08:02:43;56.97;;;28.63;;
20114;SDS011;10218;42.874;25.320;2023-03-03T08:10:57;57.40;;;27.63;;
20114;SDS011;10218;42.874;25.320;2023-03-03T08:18:39;48.93;;;25.93;;
20114;SDS011;10218;42.874;25.320;2023-03-03T08:21:12;55.80;;;27.43;;
20114;SDS011;10218;42.874;25.320;2023-03-03T08:23:41;59.13;;;29.27;;
20114;SDS011;10218;42.874;25.320;2023-03-03T08:26:08;64.13;;;29.73;;
20114;SDS011;10218;42.874;25.320;2023-03-03T08:28:38;63.23;;;29.13;;
20114;SDS011;10218;42.874;25.320;2023-03-03T08:31:05;59.97;;;29.50;;
20114;SDS011;10218;42.874;25.320;2023-03-03T08:33:45;59.23;;;29.00;;
20114;SDS011;10218;42.874;25.320;2023-03-03T08:36:13;54.43;;;27.03;;
20114;SDS011;10218;42.874;25.320;2023-03-03T08:38:40;52.63;;;26.87;;
20114;SDS011;10218;42.874;25.320;2023-03-03T08:41:07;54.00;;;27.40;;
20114;SDS011;10218;42.874;25.320;2023-03-03T08:43:35;53.70;;;26.47;;
20114;SDS011;10218;42.874;25.320;2023-03-03T08:46:02;50.30;;;24.83;;
20114;SDS011;10218;42.874;25.320;2023-03-03T08:48:31;50.17;;;24.97;;
20114;SDS011;10218;42.874;25.320;2023-03-03T08:50:59;54.10;;;26.90;;
20114;SDS011;10218;42.874;25.320;2023-03-03T08:53:26;57.63;;;29.97;;
20114;SDS011;10218;42.874;25.320;2023-03-03T08:55:54;54.47;;;28.13;;
20114;SDS011;10218;42.874;25.320;2023-03-03T08:58:22;59.90;;;30.73;;
20114;SDS011;10218;42.874;25.320;2023-03-03T09:00:59;63.07;;;31.50;;
20114;SDS011;10218;42.874;25.320;2023-03-03T09:03:26;54.90;;;29.27;;
20114;SDS011;10218;42.874;25.320;2023-03-03T09:05:53;54.13;;;29.20;;
20114;SDS011;10218;42.874;25.320;2023-03-03T09:08:20;50.77;;;25.73;;
20114;SDS011;10218;42.874;25.320;2023-03-03T09:10:47;55.13;;;27.27;;
20114;SDS011;10218;42.874;25.320;2023-03-03T09:13:15;50.40;;;28.00;;
20114;SDS011;10218;42.874;25.320;2023-03-03T09:15:48;47.57;;;25.37;;
20114;SDS011;10218;42.874;25.320;2023-03-03T09:18:35;49.57;;;26.07;;
20114;SDS011;10218;42.874;25.320;2023-03-03T09:24:00;50.13;;;26.70;;
20114;SDS011;10218;42.874;25.320;2023-03-03T09:34:19;54.47;;;28.73;;
20114;SDS011;10218;42.874;25.320;2023-03-03T09:36:52;50.93;;;28.80;;
20114;SDS011;10218;42.874;25.320;2023-03-03T09:53:12;42.20;;;24.67;;
20114;SDS011;10218;42.874;25.320;2023-03-03T10:09:39;52.63;;;29.00;;
20114;SDS011;10218;42.874;25.320;2023-03-03T10:18:16;53.50;;;31.17;;
20114;SDS011;10218;42.874;25.320;2023-03-03T10:26:07;53.40;;;28.27;;
20114;SDS011;10218;42.874;25.320;2023-03-03T10:29:12;47.47;;;27.30;;
20114;SDS011;10218;42.874;25.320;2023-03-03T10:37:57;57.53;;;29.33;;
20114;SDS011;10218;42.874;25.320;2023-03-03T10:46:01;41.63;;;24.97;;
20114;SDS011;10218;42.874;25.320;2023-03-03T10:57:03;49.47;;;25.83;;
20114;SDS011;10218;42.874;25.320;2023-03-03T11:08:10;50.73;;;28.20;;
20114;SDS011;10218;42.874;25.320;2023-03-03T11:35:21;49.73;;;27.03;;
20114;SDS011;10218;42.874;25.320;2023-03-03T11:37:56;53.10;;;28.53;;
20114;SDS011;10218;42.874;25.320;2023-03-03T11:43:14;49.17;;;26.33;;
20114;SDS011;10218;42.874;25.320;2023-03-03T11:46:05;52.53;;;27.97;;
20114;SDS011;10218;42.874;25.320;2023-03-03T11:48:54;56.23;;;28.50;;
20114;SDS011;10218;42.874;25.320;2023-03-03T11:54:03;49.93;;;28.50;;
20114;SDS011;10218;42.874;25.320;2023-03-03T11:56:40;50.67;;;28.10;;
20114;SDS011;10218;42.874;25.320;2023-03-03T12:02:26;51.13;;;27.57;;
20114;SDS011;10218;42.874;25.320;2023-03-03T12:08:07;51.33;;;29.00;;
20114;SDS011;10218;42.874;25.320;2023-03-03T12:10:35;51.23;;;26.93;;
20114;SDS011;10218;42.874;25.320;2023-03-03T12:13:21;47.63;;;26.97;;
20114;SDS011;10218;42.874;25.320;2023-03-03T12:19:08;47.03;;;27.63;;
20114;SDS011;10218;42.874;25.320;2023-03-03T12:36:09;50.63;;;28.23;;
20114;SDS011;10218;42.874;25.320;2023-03-03T12:38:58;54.73;;;30.77;;
20114;SDS011;10218;42.874;25.320;2023-03-03T12:41:32;55.63;;;29.00;;
20114;SDS011;10218;42.874;25.320;2023-03-03T12:47:38;55.60;;;30.63;;
20114;SDS011;10218;42.874;25.320;2023-03-03T12:50:26;60.60;;;34.00;;
20114;SDS011;10218;42.874;25.320;2023-03-03T12:56:03;52.00;;;29.10;;
20114;SDS011;10218;42.874;25.320;2023-03-03T12:58:47;56.17;;;30.23;;
20114;SDS011;10218;42.874;25.320;2023-03-03T13:04:27;52.20;;;30.10;;
20114;SDS011;10218;42.874;25.320;2023-03-03T13:21:11;55.83;;;32.03;;
20114;SDS011;10218;42.874;25.320;2023-03-03T13:29:25;54.33;;;30.13;;
20114;SDS011;10218;42.874;25.320;2023-03-03T13:31:57;56.73;;;31.20;;
20114;SDS011;10218;42.874;25.320;2023-03-03T13:37:20;51.47;;;29.60;;
20114;SDS011;10218;42.874;25.320;2023-03-03T13:42:24;57.83;;;30.87;;
20114;SDS011;10218;42.874;25.320;2023-03-03T13:44:58;59.23;;;30.97;;
20114;SDS011;10218;42.874;25.320;2023-03-03T13:50:14;54.03;;;30.67;;
20114;SDS011;10218;42.874;25.320;2023-03-03T13:58:59;52.00;;;29.67;;
20114;SDS011;10218;42.874;25.320;2023-03-03T14:01:50;59.57;;;34.63;;
20114;SDS011;10218;42.874;25.320;2023-03-03T14:07:02;119.40;;;70.83;;
20114;SDS011;10218;42.874;25.320;2023-03-03T14:19:55;64.57;;;35.30;;
20114;SDS011;10218;42.874;25.320;2023-03-03T14:25:17;55.40;;;31.97;;
20114;SDS011;10218;42.874;25.320;2023-03-03T14:35:34;57.10;;;31.17;;
20114;SDS011;10218;42.874;25.320;2023-03-03T14:38:18;55.97;;;29.57;;
20114;SDS011;10218;42.874;25.320;2023-03-03T14:40:48;59.07;;;28.73;;
20114;SDS011;10218;42.874;25.320;2023-03-03T14:43:35;51.17;;;25.77;;
20114;SDS011;10218;42.874;25.320;2023-03-03T14:48:53;57.33;;;30.47;;
20114;SDS011;10218;42.874;25.320;2023-03-03T14:53:53;56.73;;;29.90;;
20114;SDS011;10218;42.874;25.320;2023-03-03T14:59:38;67.37;;;37.33;;
20114;SDS011;10218;42.874;25.320;2023-03-03T15:04:43;55.83;;;31.27;;
20114;SDS011;10218;42.874;25.320;2023-03-03T15:10:00;57.80;;;31.27;;
20114;SDS011;10218;42.874;25.320;2023-03-03T15:18:00;66.83;;;36.77;;
20114;SDS011;10218;42.874;25.320;2023-03-03T15:20:51;62.83;;;32.53;;
20114;SDS011;10218;42.874;25.320;2023-03-03T15:38:20;61.13;;;37.30;;
20114;SDS011;10218;42.874;25.320;2023-03-03T15:40:37;69.80;;;37.50;;
20114;SDS011;10218;42.874;25.320;2023-03-03T15:46:05;56.30;;;31.43;;
20114;SDS011;10218;42.874;25.320;2023-03-03T15:57:13;68.30;;;36.60;;
20114;SDS011;10218;42.874;25.320;2023-03-03T16:02:30;63.37;;;33.97;;
20114;SDS011;10218;42.874;25.320;2023-03-03T16:13:02;74.10;;;38.40;;
20114;SDS011;10218;42.874;25.320;2023-03-03T16:19:02;57.70;;;32.63;;
20114;SDS011;10218;42.874;25.320;2023-03-03T16:36:33;73.93;;;42.20;;
20114;SDS011;10218;42.874;25.320;2023-03-03T16:41:49;73.87;;;43.00;;
20114;SDS011;10218;42.874;25.320;2023-03-03T16:52:47;71.20;;;41.80;;
20114;SDS011;10218;42.874;25.320;2023-03-03T16:55:24;75.87;;;40.93;;
20114;SDS011;10218;42.874;25.320;2023-03-03T16:58:04;77.27;;;44.93;;
20114;SDS011;10218;42.874;25.320;2023-03-03T17:01:08;59.67;;;32.93;;
20114;SDS011;10218;42.874;25.320;2023-03-03T17:04:00;74.10;;;41.73;;
20114;SDS011;10218;42.874;25.320;2023-03-03T17:18:44;58.63;;;32.43;;
20114;SDS011;10218;42.874;25.320;2023-03-03T17:27:15;87.67;;;44.87;;
20114;SDS011;10218;42.874;25.320;2023-03-03T17:29:48;71.83;;;37.30;;
20114;SDS011;10218;42.874;25.320;2023-03-03T17:32:32;58.37;;;33.63;;
20114;SDS011;10218;42.874;25.320;2023-03-03T18:22:49;49.27;;;28.67;;
20114;SDS011;10218;42.874;25.320;2023-03-03T18:25:21;52.30;;;30.53;;
20114;SDS011;10218;42.874;25.320;2023-03-03T18:30:27;60.00;;;35.33;;
20114;SDS011;10218;42.874;25.320;2023-03-03T18:33:15;68.13;;;41.27;;
20114;SDS011;10218;42.874;25.320;2023-03-03T18:36:07;69.30;;;41.77;;
20114;SDS011;10218;42.874;25.320;2023-03-03T18:38:43;64.40;;;40.00;;
20114;SDS011;10218;42.874;25.320;2023-03-03T18:41:17;68.10;;;40.10;;
20114;SDS011;10218;42.874;25.320;2023-03-03T18:43:52;75.80;;;45.10;;
20114;SDS011;10218;42.874;25.320;2023-03-03T18:48:50;76.40;;;44.80;;
20114;SDS011;10218;42.874;25.320;2023-03-03T19:04:53;69.67;;;38.43;;
20114;SDS011;10218;42.874;25.320;2023-03-03T19:12:50;53.10;;;31.07;;
20114;SDS011;10218;42.874;25.320;2023-03-03T19:20:54;49.57;;;28.40;;
20114;SDS011;10218;42.874;25.320;2023-03-03T19:56:40;43.17;;;27.03;;
20114;SDS011;10218;42.874;25.320;2023-03-03T20:10:19;42.77;;;26.07;;
20114;SDS011;10218;42.874;25.320;2023-03-03T20:26:15;55.63;;;31.73;;
20114;SDS011;10218;42.874;25.320;2023-03-03T20:34:46;70.00;;;40.17;;
20114;SDS011;10218;42.874;25.320;2023-03-03T20:37:25;68.03;;;37.63;;
20114;SDS011;10218;42.874;25.320;2023-03-03T20:40:14;64.23;;;33.77;;
20114;SDS011;10218;42.874;25.320;2023-03-03T20:54:10;61.93;;;30.03;;
20114;SDS011;10218;42.874;25.320;2023-03-03T21:07:36;83.13;;;44.07;;
20114;SDS011;10218;42.874;25.320;2023-03-03T21:10:17;84.40;;;43.23;;
20114;SDS011;10218;42.874;25.320;2023-03-03T21:12:50;80.10;;;43.93;;
20114;SDS011;10218;42.874;25.320;2023-03-03T21:15:21;84.03;;;44.00;;
20114;SDS011;10218;42.874;25.320;2023-03-03T21:17:53;81.40;;;43.33;;
20114;SDS011;10218;42.874;25.320;2023-03-03T21:22:54;94.43;;;51.13;;
20114;SDS011;10218;42.874;25.320;2023-03-03T21:25:41;106.37;;;53.13;;
20114;SDS011;10218;42.874;25.320;2023-03-03T21:36:08;111.03;;;58.57;;
20114;SDS011;10218;42.874;25.320;2023-03-03T21:38:37;87.03;;;47.43;;
20114;SDS011;10218;42.874;25.320;2023-03-03T21:41:05;88.80;;;47.43;;
20114;SDS011;10218;42.874;25.320;2023-03-03T21:43:34;100.87;;;49.47;;
20114;SDS011;10218;42.874;25.320;2023-03-03T21:46:23;103.13;;;50.73;;
20114;SDS011;10218;42.874;25.320;2023-03-03T21:48:51;109.20;;;53.70;;
20114;SDS011;10218;42.874;25.320;2023-03-03T21:51:18;116.10;;;55.73;;
20114;SDS011;10218;42.874;25.320;2023-03-03T21:53:46;104.57;;;52.30;;
20114;SDS011;10218;42.874;25.320;2023-03-03T21:56:14;88.97;;;45.37;;
20114;SDS011;10218;42.874;25.320;2023-03-03T21:58:41;91.87;;;46.47;;
20114;SDS011;10218;42.874;25.320;2023-03-03T22:01:08;86.83;;;45.17;;
20114;SDS011;10218;42.874;25.320;2023-03-03T22:03:36;89.37;;;43.93;;
20114;SDS011;10218;42.874;25.320;2023-03-03T22:06:03;72.80;;;38.97;;
20114;SDS011;10218;42.874;25.320;2023-03-03T22:08:30;66.73;;;35.20;;
20114;SDS011;10218;42.874;25.320;2023-03-03T22:11:00;66.10;;;33.70;;
20114;SDS011;10218;42.874;25.320;2023-03-03T22:13:27;60.37;;;31.67;;
20114;SDS011;10218;42.874;25.320;2023-03-03T22:15:54;60.70;;;30.70;;
20114;SDS011;10218;42.874;25.320;2023-03-03T22:18:21;65.33;;;32.23;;
20114;SDS011;10218;42.874;25.320;2023-03-03T22:20:48;57.97;;;31.90;;
20114;SDS011;10218;42.874;25.320;2023-03-03T22:23:16;67.67;;;32.33;;
20114;SDS011;10218;42.874;25.320;2023-03-03T22:25:44;69.87;;;32.13;;
20114;SDS011;10218;42.874;25.320;2023-03-03T22:28:12;64.40;;;32.90;;
20114;SDS011;10218;42.874;25.320;2023-03-03T22:30:39;69.47;;;33.63;;
20114;SDS011;10218;42.874;25.320;2023-03-03T22:33:06;67.87;;;34.93;;
20114;SDS011;10218;42.874;25.320;2023-03-03T22:35:33;77.37;;;36.93;;
20114;SDS011;10218;42.874;25.320;2023-03-03T22:38:00;74.37;;;36.63;;
20114;SDS011;10218;42.874;25.320;2023-03-03T22:40:28;73.03;;;33.43;;
20114;SDS011;10218;42.874;25.320;2023-03-03T22:42:55;76.57;;;39.40;;
20114;SDS011;10218;42.874;25.320;2023-03-03T22:45:22;72.33;;;35.53;;
20114;SDS011;10218;42.874;25.320;2023-03-03T22:47:49;77.63;;;36.73;;
20114;SDS011;10218;42.874;25.320;2023-03-03T22:50:16;76.83;;;38.90;;
20114;SDS011;10218;42.874;25.320;2023-03-03T22:52:44;94.50;;;41.90;;
20114;SDS011;10218;42.874;25.320;2023-03-03T22:55:12;79.27;;;38.07;;
20114;SDS011;10218;42.874;25.320;2023-03-03T22:57:39;72.50;;;35.37;;
20114;SDS011;10218;42.874;25.320;2023-03-03T23:00:06;62.77;;;30.40;;
20114;SDS011;10218;42.874;25.320;2023-03-03T23:02:35;59.63;;;29.53;;
20114;SDS011;10218;42.874;25.320;2023-03-03T23:05:03;53.57;;;27.37;;